עמוד ראשי
METAR-TAF:

METAR-TAF

שדות תעופה :

Fort Good Hope, הטריטוריות הצפון-מערביות, קנדה

קו רוחב: 66-16N, קו אורך: 128-37W, גובה: 60מטר

תצפית מזג אוויר נוכחית

הדו"ח נערך לפני 35דקות, בשעה 17:00 UTC
רוח רגועה
טמפרטורת 17 צלסיוס
לחות 45%
לחץ 1012 hPa
ראות: 24.1קילומטר
מעט עננים בגובה 12000רגל
עננים פזורים בגובה 23000רגל

METAR: CYGH 171700Z 00000KT 15SM FEW120 SCT230 17/05 A2989 RMK AC2CI2 FU VIS E 1 SLP127 DENSITY ALT 600FT

זמן: 11:35 (17:35 UTC)

תחזית

הדו"ח נערך לפני 1 שעות ו 53דקות, בשעה 15:42 UTC
תחזית בתוקף מ 17 ב 15 UTC עד 17 ב 23 UTC
רוח 3קשר עם כיוונים משתנים
ראות: 10קילומטר
עננים בינוניים בגובה 9000רגל
זמנית מ -
17 ב 15 UTC עד 17 ב 23 UTC
ראות: 1.2קילומטר
עשן

TAF: CYGH 171542Z 1715/1723 VRB03KT P6SM BKN090 TEMPO 1715/1723 3/4SM FU RMK NXT FCST BY 171800Z

תצפיות ותחזיות מזג אוויר לגבי יותר מ- 4,000 שדות תעופה ברחבי העולם. דוחות METAR ו- TAF.

התחנות הזמינות מסומנות בנקודות צהובות ואדומות על גבי המפה.

העבר את העכבר לנקודה הצבעונית על מנת לראות את שם התחנה.

לאחר מכן, לחץ כדי לראות את תוכן ואת תחזיות מזג האוויר.

כדי לשנות את המפה: לחץ על הכפתורים הירוקים עם הפלוס השחור כדי להתקרב; על הכפתור הירוק עם המקף כדי להתרחק; או בחיצים הירוקים למפות סמוכות.


METAR-TAF: